sensor_id;sensor_type;location;lat;lon;timestamp;pressure;altitude;pressure_sealevel;temperature;humidity
79347;BME280;68815;48.810;44.482;2024-02-15T00:02:00;101803;;;-7.2;80.7
79347;BME280;68815;48.810;44.482;2024-02-15T00:05:02;101770;;;-7.2;81.5
79347;BME280;68815;48.810;44.482;2024-02-15T00:08:04;101778;;;-7.4;80.5
79347;BME280;68815;48.810;44.482;2024-02-15T00:11:06;101765;;;-7.4;80.5
79347;BME280;68815;48.810;44.482;2024-02-15T00:14:08;101779;;;-7.4;80.9
79347;BME280;68815;48.810;44.482;2024-02-15T00:17:10;101785;;;-7.5;81.3
79347;BME280;68815;48.810;44.482;2024-02-15T00:20:12;101780;;;-7.6;81.6
79347;BME280;68815;48.810;44.482;2024-02-15T00:23:14;101800;;;-7.6;81.1
79347;BME280;68815;48.810;44.482;2024-02-15T00:26:16;101810;;;-7.8;80.5
79347;BME280;68815;48.810;44.482;2024-02-15T00:29:18;101781;;;-7.8;80.1
79347;BME280;68815;48.810;44.482;2024-02-15T00:32:20;101799;;;-7.7;80.5
79347;BME280;68815;48.810;44.482;2024-02-15T00:35:22;101795;;;-7.8;81.1
79347;BME280;68815;48.810;44.482;2024-02-15T00:38:24;101797;;;-7.7;80.7
79347;BME280;68815;48.810;44.482;2024-02-15T00:41:25;101813;;;-7.8;80.4
79347;BME280;68815;48.810;44.482;2024-02-15T00:44:27;101837;;;-7.9;79.2
79347;BME280;68815;48.810;44.482;2024-02-15T00:47:29;101810;;;-8;79
79347;BME280;68815;48.810;44.482;2024-02-15T00:50:31;101812;;;-8.1;79.6
79347;BME280;68815;48.810;44.482;2024-02-15T00:53:33;101802;;;-8;79.5
79347;BME280;68815;48.810;44.482;2024-02-15T00:56:35;101809;;;-8;79.5
79347;BME280;68815;48.810;44.482;2024-02-15T00:59:37;101810;;;-8.1;78.9
79347;BME280;68815;48.810;44.482;2024-02-15T01:02:39;101808;;;-8.2;79.3
79347;BME280;68815;48.810;44.482;2024-02-15T01:05:40;101809;;;-8.4;78.7
79347;BME280;68815;48.810;44.482;2024-02-15T01:08:42;101801;;;-8.3;78.5
79347;BME280;68815;48.810;44.482;2024-02-15T01:11:44;101844;;;-8.4;78.3
79347;BME280;68815;48.810;44.482;2024-02-15T01:14:45;101840;;;-8.3;78.3
79347;BME280;68815;48.810;44.482;2024-02-15T01:17:47;101845;;;-8.5;77.8
79347;BME280;68815;48.810;44.482;2024-02-15T01:20:49;101819;;;-8.4;77.9
79347;BME280;68815;48.810;44.482;2024-02-15T01:23:51;101810;;;-8.4;78.4
79347;BME280;68815;48.810;44.482;2024-02-15T01:26:53;101830;;;-8.3;78.3
79347;BME280;68815;48.810;44.482;2024-02-15T01:29:55;101846;;;-8.5;77.5
79347;BME280;68815;48.810;44.482;2024-02-15T01:32:57;101845;;;-8.8;77.7
79347;BME280;68815;48.810;44.482;2024-02-15T01:35:58;101842;;;-8.5;78
79347;BME280;68815;48.810;44.482;2024-02-15T01:39:00;101838;;;-8.6;77.6
79347;BME280;68815;48.810;44.482;2024-02-15T01:42:02;101846;;;-8.7;77.4
79347;BME280;68815;48.810;44.482;2024-02-15T01:45:05;101849;;;-8.7;77.6
79347;BME280;68815;48.810;44.482;2024-02-15T01:48:07;101867;;;-8.6;77.4
79347;BME280;68815;48.810;44.482;2024-02-15T01:51:11;101859;;;-8.8;76.7
79347;BME280;68815;48.810;44.482;2024-02-15T01:54:14;101873;;;-8.8;76.8
79347;BME280;68815;48.810;44.482;2024-02-15T01:57:16;101861;;;-8.7;76.5
79347;BME280;68815;48.810;44.482;2024-02-15T02:00:19;101863;;;-8.8;76.8
79347;BME280;68815;48.810;44.482;2024-02-15T02:03:21;101874;;;-8.7;77.3
79347;BME280;68815;48.810;44.482;2024-02-15T02:06:23;101864;;;-8.9;77.6
79347;BME280;68815;48.810;44.482;2024-02-15T02:09:25;101886;;;-8.9;76.8
79347;BME280;68815;48.810;44.482;2024-02-15T02:12:27;101886;;;-8.9;76.6
79347;BME280;68815;48.810;44.482;2024-02-15T02:15:31;101874;;;-8.9;76.5
79347;BME280;68815;48.810;44.482;2024-02-15T02:18:33;101870;;;-9.1;76.7
79347;BME280;68815;48.810;44.482;2024-02-15T02:21:36;101872;;;-9.1;77.1
79347;BME280;68815;48.810;44.482;2024-02-15T02:24:44;101865;;;-9.1;77
79347;BME280;68815;48.810;44.482;2024-02-15T02:27:48;101871;;;-9.2;76.8
79347;BME280;68815;48.810;44.482;2024-02-15T02:30:50;101879;;;-9.5;76.3
79347;BME280;68815;48.810;44.482;2024-02-15T02:33:53;101877;;;-9.3;76.8
79347;BME280;68815;48.810;44.482;2024-02-15T02:36:56;101878;;;-9.3;76.7
79347;BME280;68815;48.810;44.482;2024-02-15T02:39:57;101877;;;-9.3;76.6
79347;BME280;68815;48.810;44.482;2024-02-15T02:42:59;101882;;;-9.3;76.5
79347;BME280;68815;48.810;44.482;2024-02-15T02:46:01;101899;;;-9.5;77.1
79347;BME280;68815;48.810;44.482;2024-02-15T02:49:03;101901;;;-9.4;77.2
79347;BME280;68815;48.810;44.482;2024-02-15T02:52:05;101931;;;-9.4;77.1
79347;BME280;68815;48.810;44.482;2024-02-15T02:55:08;101907;;;-9.5;76.4
79347;BME280;68815;48.810;44.482;2024-02-15T02:58:09;101917;;;-9.4;76.7
79347;BME280;68815;48.810;44.482;2024-02-15T03:01:11;101906;;;-9.5;76.7
79347;BME280;68815;48.810;44.482;2024-02-15T03:04:15;101924;;;-9.6;76.9
79347;BME280;68815;48.810;44.482;2024-02-15T03:07:17;101921;;;-9.7;76.4
79347;BME280;68815;48.810;44.482;2024-02-15T03:10:19;101904;;;-9.8;76.7
79347;BME280;68815;48.810;44.482;2024-02-15T03:13:20;101898;;;-9.8;76.8
79347;BME280;68815;48.810;44.482;2024-02-15T03:16:22;101931;;;-9.8;76.8
79347;BME280;68815;48.810;44.482;2024-02-15T03:19:24;101937;;;-9.9;76.5
79347;BME280;68815;48.810;44.482;2024-02-15T03:22:28;101902;;;-10;76.4
79347;BME280;68815;48.810;44.482;2024-02-15T03:25:30;101909;;;-10;77
79347;BME280;68815;48.810;44.482;2024-02-15T03:28:33;101907;;;-9.9;77
79347;BME280;68815;48.810;44.482;2024-02-15T03:31:35;101905;;;-10.1;76.5
79347;BME280;68815;48.810;44.482;2024-02-15T03:34:36;101905;;;-10.1;75.9
79347;BME280;68815;48.810;44.482;2024-02-15T03:37:38;101913;;;-10.3;75.8
79347;BME280;68815;48.810;44.482;2024-02-15T03:40:40;101914;;;-10.3;76.1
79347;BME280;68815;48.810;44.482;2024-02-15T03:43:42;101935;;;-10.4;76.4
79347;BME280;68815;48.810;44.482;2024-02-15T03:46:44;101939;;;-10.4;76
79347;BME280;68815;48.810;44.482;2024-02-15T03:49:46;101987;;;-10.4;75.4
79347;BME280;68815;48.810;44.482;2024-02-15T03:52:48;101923;;;-10.4;75.9
79347;BME280;68815;48.810;44.482;2024-02-15T03:55:49;101932;;;-10.4;75.9
79347;BME280;68815;48.810;44.482;2024-02-15T03:58:51;101977;;;-10.5;76.4
79347;BME280;68815;48.810;44.482;2024-02-15T04:01:54;101946;;;-10.5;76.5
79347;BME280;68815;48.810;44.482;2024-02-15T04:04:56;101940;;;-10.5;76.4
79347;BME280;68815;48.810;44.482;2024-02-15T04:07:57;101946;;;-10.4;76.2
79347;BME280;68815;48.810;44.482;2024-02-15T04:10:59;101959;;;-10.5;75.7
79347;BME280;68815;48.810;44.482;2024-02-15T04:14:01;101969;;;-10.4;75.7
79347;BME280;68815;48.810;44.482;2024-02-15T04:17:05;101987;;;-10.4;75.5
79347;BME280;68815;48.810;44.482;2024-02-15T04:20:07;101981;;;-10.4;75.6
79347;BME280;68815;48.810;44.482;2024-02-15T04:23:09;101994;;;-10.3;75.5
79347;BME280;68815;48.810;44.482;2024-02-15T04:26:11;102007;;;-10.3;75.1
79347;BME280;68815;48.810;44.482;2024-02-15T04:29:14;102021;;;-10.5;74.7
79347;BME280;68815;48.810;44.482;2024-02-15T04:32:15;102023;;;-10.4;74.8
79347;BME280;68815;48.810;44.482;2024-02-15T04:35:17;102034;;;-10.6;75
79347;BME280;68815;48.810;44.482;2024-02-15T04:38:19;102025;;;-10.4;74.8
79347;BME280;68815;48.810;44.482;2024-02-15T04:41:21;102043;;;-10.4;74.5
79347;BME280;68815;48.810;44.482;2024-02-15T04:44:22;102066;;;-10.4;74.1
79347;BME280;68815;48.810;44.482;2024-02-15T04:47:40;102062;;;-10.4;74.1
79347;BME280;68815;48.810;44.482;2024-02-15T04:50:41;102080;;;-10.5;74.1
79347;BME280;68815;48.810;44.482;2024-02-15T04:53:43;102061;;;-10.4;73.9
79347;BME280;68815;48.810;44.482;2024-02-15T04:56:45;102073;;;-10.3;73.6
79347;BME280;68815;48.810;44.482;2024-02-15T04:59:46;102092;;;-10.3;73.7
79347;BME280;68815;48.810;44.482;2024-02-15T05:02:48;102092;;;-10;73.8
79347;BME280;68815;48.810;44.482;2024-02-15T05:05:50;102119;;;-9.9;72.8
79347;BME280;68815;48.810;44.482;2024-02-15T05:08:52;102100;;;-10.1;73.1
79347;BME280;68815;48.810;44.482;2024-02-15T05:11:53;102105;;;-10.2;73
79347;BME280;68815;48.810;44.482;2024-02-15T05:14:55;102116;;;-10;72.1
79347;BME280;68815;48.810;44.482;2024-02-15T05:17:57;102127;;;-9.9;72.2
79347;BME280;68815;48.810;44.482;2024-02-15T05:20:58;102147;;;-9.8;71.6
79347;BME280;68815;48.810;44.482;2024-02-15T05:24:00;102138;;;-9.8;71.1
79347;BME280;68815;48.810;44.482;2024-02-15T05:27:02;102136;;;-9.8;71.5
79347;BME280;68815;48.810;44.482;2024-02-15T05:30:04;102134;;;-9.5;71.4
79347;BME280;68815;48.810;44.482;2024-02-15T05:33:06;102127;;;-9.1;69.8
79347;BME280;68815;48.810;44.482;2024-02-15T05:36:08;102136;;;-9.3;69.1
79347;BME280;68815;48.810;44.482;2024-02-15T05:39:09;102147;;;-9.4;69.1
79347;BME280;68815;48.810;44.482;2024-02-15T05:42:11;102122;;;-9.1;68.7
79347;BME280;68815;48.810;44.482;2024-02-15T05:45:29;102129;;;-9;68.1
79347;BME280;68815;48.810;44.482;2024-02-15T05:48:32;102142;;;-9.1;67.3
79347;BME280;68815;48.810;44.482;2024-02-15T05:51:34;102143;;;-9.1;66.9
79347;BME280;68815;48.810;44.482;2024-02-15T05:54:35;102141;;;-8.5;66.5
79347;BME280;68815;48.810;44.482;2024-02-15T05:57:37;102146;;;-8.6;65.9
79347;BME280;68815;48.810;44.482;2024-02-15T06:00:39;102146;;;-8.3;66.2
79347;BME280;68815;48.810;44.482;2024-02-15T06:03:41;102130;;;-8.1;66.7
79347;BME280;68815;48.810;44.482;2024-02-15T06:06:43;102138;;;-8.6;67.1
79347;BME280;68815;48.810;44.482;2024-02-15T06:09:44;102137;;;-8.1;66.5
79347;BME280;68815;48.810;44.482;2024-02-15T06:12:46;102147;;;-7.9;64.5
79347;BME280;68815;48.810;44.482;2024-02-15T06:15:48;102143;;;-8.2;64.4
79347;BME280;68815;48.810;44.482;2024-02-15T06:18:50;102144;;;-8.3;65.2
79347;BME280;68815;48.810;44.482;2024-02-15T06:21:57;102151;;;-7.9;65.2
79347;BME280;68815;48.810;44.482;2024-02-15T06:24:59;102156;;;-8.6;65.6
79347;BME280;68815;48.810;44.482;2024-02-15T06:28:01;102151;;;-8.3;65.7
79347;BME280;68815;48.810;44.482;2024-02-15T06:31:02;102150;;;-7.6;65.3
79347;BME280;68815;48.810;44.482;2024-02-15T06:34:04;102151;;;-6.8;62.8
79347;BME280;68815;48.810;44.482;2024-02-15T06:37:06;102150;;;-7.4;63.1
79347;BME280;68815;48.810;44.482;2024-02-15T06:40:08;102166;;;-7.4;63
79347;BME280;68815;48.810;44.482;2024-02-15T06:43:10;102153;;;-6.7;61.9
79347;BME280;68815;48.810;44.482;2024-02-15T06:46:11;102157;;;-7.2;62.2
79347;BME280;68815;48.810;44.482;2024-02-15T06:49:13;102140;;;-6.6;62.6
79347;BME280;68815;48.810;44.482;2024-02-15T06:52:15;102151;;;-7.1;63
79347;BME280;68815;48.810;44.482;2024-02-15T06:55:17;102147;;;-7.1;63.1
79347;BME280;68815;48.810;44.482;2024-02-15T06:58:18;102149;;;-7.4;63.2
79347;BME280;68815;48.810;44.482;2024-02-15T07:01:20;102152;;;-6.9;62.9
79347;BME280;68815;48.810;44.482;2024-02-15T07:04:22;102131;;;-6.4;61.8
79347;BME280;68815;48.810;44.482;2024-02-15T07:07:23;102141;;;-5.6;60.2
79347;BME280;68815;48.810;44.482;2024-02-15T07:10:25;102137;;;-6.4;61.3
79347;BME280;68815;48.810;44.482;2024-02-15T07:13:26;102134;;;-5.5;61.3
79347;BME280;68815;48.810;44.482;2024-02-15T07:16:28;102146;;;-5.4;59.5
79347;BME280;68815;48.810;44.482;2024-02-15T07:19:30;102133;;;-5.4;58.8
79347;BME280;68815;48.810;44.482;2024-02-15T07:22:32;102185;;;-5.8;59.4
79347;BME280;68815;48.810;44.482;2024-02-15T07:25:35;102137;;;-6.3;61.2
79347;BME280;68815;48.810;44.482;2024-02-15T07:28:37;102145;;;-6.1;62.1
79347;BME280;68815;48.810;44.482;2024-02-15T07:31:39;102182;;;-7;64.3
79347;BME280;68815;48.810;44.482;2024-02-15T07:34:41;102197;;;-7;65.9
79347;BME280;68815;48.810;44.482;2024-02-15T07:37:51;102142;;;-6.8;66.4
79347;BME280;68815;48.810;44.482;2024-02-15T07:40:53;102162;;;-7.3;67.2
79347;BME280;68815;48.810;44.482;2024-02-15T07:43:55;102156;;;-6.6;67.2
79347;BME280;68815;48.810;44.482;2024-02-15T07:46:58;102161;;;-6.8;66.3
79347;BME280;68815;48.810;44.482;2024-02-15T07:50:00;102193;;;-7.1;66.9
79347;BME280;68815;48.810;44.482;2024-02-15T07:53:01;102175;;;-7.3;67.7
79347;BME280;68815;48.810;44.482;2024-02-15T07:56:03;102160;;;-7;68.5
79347;BME280;68815;48.810;44.482;2024-02-15T07:59:05;102166;;;-7;68.8
79347;BME280;68815;48.810;44.482;2024-02-15T08:02:07;102170;;;-6.7;68
79347;BME280;68815;48.810;44.482;2024-02-15T08:05:09;102183;;;-7;69
79347;BME280;68815;48.810;44.482;2024-02-15T08:08:11;102179;;;-6.9;68.6
79347;BME280;68815;48.810;44.482;2024-02-15T08:11:13;102173;;;-6.6;69
79347;BME280;68815;48.810;44.482;2024-02-15T08:14:15;102180;;;-6.1;68.1
79347;BME280;68815;48.810;44.482;2024-02-15T08:17:16;102180;;;-6.6;68.3
79347;BME280;68815;48.810;44.482;2024-02-15T08:20:18;102209;;;-6.9;69.2
79347;BME280;68815;48.810;44.482;2024-02-15T08:23:19;102187;;;-6.8;69.5
79347;BME280;68815;48.810;44.482;2024-02-15T08:26:21;102206;;;-6.8;69.6
79347;BME280;68815;48.810;44.482;2024-02-15T08:29:24;102212;;;-6.8;70.5
79347;BME280;68815;48.810;44.482;2024-02-15T08:32:26;102209;;;-6.9;70.2
79347;BME280;68815;48.810;44.482;2024-02-15T08:35:27;102210;;;-6.8;70.5
79347;BME280;68815;48.810;44.482;2024-02-15T08:38:29;102189;;;-6.5;69.9
79347;BME280;68815;48.810;44.482;2024-02-15T08:41:31;102185;;;-6;69.6
79347;BME280;68815;48.810;44.482;2024-02-15T08:44:34;102195;;;-6.6;69.1
79347;BME280;68815;48.810;44.482;2024-02-15T08:47:36;102191;;;-6.8;69.8
79347;BME280;68815;48.810;44.482;2024-02-15T08:50:38;102216;;;-6.7;70.1
79347;BME280;68815;48.810;44.482;2024-02-15T08:53:40;102204;;;-6.8;69.9
79347;BME280;68815;48.810;44.482;2024-02-15T08:56:42;102187;;;-7;71.6
79347;BME280;68815;48.810;44.482;2024-02-15T08:59:44;102221;;;-7.1;71.2
79347;BME280;68815;48.810;44.482;2024-02-15T09:02:46;102196;;;-6.8;71.1
79347;BME280;68815;48.810;44.482;2024-02-15T09:05:48;102238;;;-7.2;71.3
79347;BME280;68815;48.810;44.482;2024-02-15T09:08:49;102178;;;-7.3;71.3
79347;BME280;68815;48.810;44.482;2024-02-15T09:11:51;102195;;;-7.4;71.7
79347;BME280;68815;48.810;44.482;2024-02-15T09:14:53;102192;;;-7.2;72.4
79347;BME280;68815;48.810;44.482;2024-02-15T09:17:55;102173;;;-7.2;72.1
79347;BME280;68815;48.810;44.482;2024-02-15T09:20:56;102190;;;-7.3;72
79347;BME280;68815;48.810;44.482;2024-02-15T09:23:58;102201;;;-7.5;72.5
79347;BME280;68815;48.810;44.482;2024-02-15T09:27:00;102194;;;-7.3;73.3
79347;BME280;68815;48.810;44.482;2024-02-15T09:30:03;102169;;;-7;73.4
79347;BME280;68815;48.810;44.482;2024-02-15T09:33:05;102198;;;-7.3;71.9
79347;BME280;68815;48.810;44.482;2024-02-15T09:36:07;102170;;;-7.3;73
79347;BME280;68815;48.810;44.482;2024-02-15T09:39:08;102178;;;-7.3;72.8
79347;BME280;68815;48.810;44.482;2024-02-15T09:42:11;102175;;;-7.3;72.7
79347;BME280;68815;48.810;44.482;2024-02-15T09:45:13;102160;;;-7.1;72.9
79347;BME280;68815;48.810;44.482;2024-02-15T09:48:16;102162;;;-6.8;72.8
79347;BME280;68815;48.810;44.482;2024-02-15T09:51:20;102163;;;-7;71.9
79347;BME280;68815;48.810;44.482;2024-02-15T09:54:22;102181;;;-7.1;72.1
79347;BME280;68815;48.810;44.482;2024-02-15T09:57:25;102169;;;-7.1;72.3
79347;BME280;68815;48.810;44.482;2024-02-15T10:00:27;102188;;;-7.1;73.2
79347;BME280;68815;48.810;44.482;2024-02-15T10:03:29;102195;;;-7.2;73.2
79347;BME280;68815;48.810;44.482;2024-02-15T10:06:31;102176;;;-7.2;73.4
79347;BME280;68815;48.810;44.482;2024-02-15T10:09:33;102174;;;-7.2;73.2
79347;BME280;68815;48.810;44.482;2024-02-15T10:12:37;102169;;;-6.9;73.7
79347;BME280;68815;48.810;44.482;2024-02-15T10:15:40;102174;;;-6.5;72.8
79347;BME280;68815;48.810;44.482;2024-02-15T10:18:41;102188;;;-6.8;72.4
79347;BME280;68815;48.810;44.482;2024-02-15T10:21:44;102179;;;-6.8;72.9
79347;BME280;68815;48.810;44.482;2024-02-15T10:24:45;102154;;;-6.9;73.1
79347;BME280;68815;48.810;44.482;2024-02-15T10:27:47;102177;;;-6.7;72.3
79347;BME280;68815;48.810;44.482;2024-02-15T10:30:49;102174;;;-6.8;72.1
79347;BME280;68815;48.810;44.482;2024-02-15T10:33:51;102178;;;-6.8;72.3
79347;BME280;68815;48.810;44.482;2024-02-15T10:36:53;102167;;;-6.9;72.5
79347;BME280;68815;48.810;44.482;2024-02-15T10:40:04;102168;;;-6.9;71.8
79347;BME280;68815;48.810;44.482;2024-02-15T10:43:06;102182;;;-7;71.8
79347;BME280;68815;48.810;44.482;2024-02-15T10:46:09;102175;;;-7;72
79347;BME280;68815;48.810;44.482;2024-02-15T10:49:10;102191;;;-7;72.6
79347;BME280;68815;48.810;44.482;2024-02-15T10:52:12;102168;;;-6.8;72.5
79347;BME280;68815;48.810;44.482;2024-02-15T10:55:18;102176;;;-6.9;71.5
79347;BME280;68815;48.810;44.482;2024-02-15T10:58:26;102171;;;-6.7;72.1
79347;BME280;68815;48.810;44.482;2024-02-15T11:01:31;102151;;;-6.8;71.6
79347;BME280;68815;48.810;44.482;2024-02-15T11:04:35;102160;;;-6.7;71.5
79347;BME280;68815;48.810;44.482;2024-02-15T11:07:37;102182;;;-6.8;70.4
79347;BME280;68815;48.810;44.482;2024-02-15T11:10:39;102176;;;-6.8;71.2
79347;BME280;68815;48.810;44.482;2024-02-15T11:13:41;102174;;;-7;71.9
79347;BME280;68815;48.810;44.482;2024-02-15T11:16:43;102184;;;-6.9;71.2
79347;BME280;68815;48.810;44.482;2024-02-15T11:19:44;102168;;;-6.9;71.4
79347;BME280;68815;48.810;44.482;2024-02-15T11:22:55;102167;;;-6.7;71.4
79347;BME280;68815;48.810;44.482;2024-02-15T11:25:58;102170;;;-6.8;71.3
79347;BME280;68815;48.810;44.482;2024-02-15T11:29:00;102184;;;-6.9;71.3
79347;BME280;68815;48.810;44.482;2024-02-15T11:32:02;102168;;;-7;71.3
79347;BME280;68815;48.810;44.482;2024-02-15T11:35:04;102188;;;-6.8;71
79347;BME280;68815;48.810;44.482;2024-02-15T11:38:05;102177;;;-6.6;72.6
79347;BME280;68815;48.810;44.482;2024-02-15T11:41:08;102167;;;-6.7;71
79347;BME280;68815;48.810;44.482;2024-02-15T11:44:15;102196;;;-7.1;70.2
79347;BME280;68815;48.810;44.482;2024-02-15T11:47:19;102190;;;-7;70.7
79347;BME280;68815;48.810;44.482;2024-02-15T11:50:22;102187;;;-6.8;70.8
79347;BME280;68815;48.810;44.482;2024-02-15T11:53:24;102208;;;-7;69.2
79347;BME280;68815;48.810;44.482;2024-02-15T11:56:25;102200;;;-7.1;70.2
79347;BME280;68815;48.810;44.482;2024-02-15T11:59:27;102182;;;-7.1;71.2
79347;BME280;68815;48.810;44.482;2024-02-15T12:02:31;102210;;;-7.2;70.3
79347;BME280;68815;48.810;44.482;2024-02-15T12:05:33;102201;;;-7.1;70.3
79347;BME280;68815;48.810;44.482;2024-02-15T12:08:35;102193;;;-6.9;71.2
79347;BME280;68815;48.810;44.482;2024-02-15T12:11:37;102193;;;-7;71.4
79347;BME280;68815;48.810;44.482;2024-02-15T12:14:39;102211;;;-6.9;71.5
79347;BME280;68815;48.810;44.482;2024-02-15T12:17:40;102205;;;-6.9;71.2
79347;BME280;68815;48.810;44.482;2024-02-15T12:20:43;102190;;;-6.9;70.9
79347;BME280;68815;48.810;44.482;2024-02-15T12:23:46;102208;;;-7.1;70.8
79347;BME280;68815;48.810;44.482;2024-02-15T12:26:47;102213;;;-7.3;71
79347;BME280;68815;48.810;44.482;2024-02-15T12:29:53;102214;;;-7.1;71.4
79347;BME280;68815;48.810;44.482;2024-02-15T12:33:08;102197;;;-7.2;71.4
79347;BME280;68815;48.810;44.482;2024-02-15T12:36:11;102206;;;-7.1;71.6
79347;BME280;68815;48.810;44.482;2024-02-15T12:39:12;102199;;;-7.2;71.5
79347;BME280;68815;48.810;44.482;2024-02-15T12:42:14;102203;;;-7.3;71.8
79347;BME280;68815;48.810;44.482;2024-02-15T12:45:16;102202;;;-7.1;71.8
79347;BME280;68815;48.810;44.482;2024-02-15T12:48:18;102211;;;-7.4;71.5
79347;BME280;68815;48.810;44.482;2024-02-15T12:51:20;102227;;;-7.3;72.6
79347;BME280;68815;48.810;44.482;2024-02-15T12:54:22;102217;;;-7.2;72.7
79347;BME280;68815;48.810;44.482;2024-02-15T12:57:24;102205;;;-7.1;73.1
79347;BME280;68815;48.810;44.482;2024-02-15T13:00:27;102209;;;-7.2;72.7
79347;BME280;68815;48.810;44.482;2024-02-15T13:03:29;102202;;;-7.3;72.6
79347;BME280;68815;48.810;44.482;2024-02-15T13:06:30;102223;;;-7.3;72.6
79347;BME280;68815;48.810;44.482;2024-02-15T13:09:32;102244;;;-7.4;73
79347;BME280;68815;48.810;44.482;2024-02-15T13:12:35;102214;;;-7.3;73.3
79347;BME280;68815;48.810;44.482;2024-02-15T13:15:37;102233;;;-7.3;73.6
79347;BME280;68815;48.810;44.482;2024-02-15T13:18:38;102243;;;-7.4;73.6
79347;BME280;68815;48.810;44.482;2024-02-15T13:21:40;102231;;;-7.4;73.8
79347;BME280;68815;48.810;44.482;2024-02-15T13:24:42;102224;;;-7.4;74.3
79347;BME280;68815;48.810;44.482;2024-02-15T13:27:43;102238;;;-7.4;74.5
79347;BME280;68815;48.810;44.482;2024-02-15T13:30:45;102234;;;-7.6;74.5
79347;BME280;68815;48.810;44.482;2024-02-15T13:33:47;102297;;;-7.7;74.7
79347;BME280;68815;48.810;44.482;2024-02-15T13:36:50;102233;;;-7.7;75
79347;BME280;68815;48.810;44.482;2024-02-15T13:39:51;102230;;;-7.7;75.2
79347;BME280;68815;48.810;44.482;2024-02-15T13:42:55;102249;;;-7.7;75
79347;BME280;68815;48.810;44.482;2024-02-15T13:45:57;102272;;;-7.7;75.2
79347;BME280;68815;48.810;44.482;2024-02-15T13:48:58;102266;;;-7.7;75.5
79347;BME280;68815;48.810;44.482;2024-02-15T13:52:00;102258;;;-7.8;75.9
79347;BME280;68815;48.810;44.482;2024-02-15T13:55:02;102253;;;-7.8;76.3
79347;BME280;68815;48.810;44.482;2024-02-15T13:58:03;102266;;;-7.8;76.7
79347;BME280;68815;48.810;44.482;2024-02-15T14:01:05;102271;;;-7.8;76.9
79347;BME280;68815;48.810;44.482;2024-02-15T14:04:07;102288;;;-7.9;77.4
79347;BME280;68815;48.810;44.482;2024-02-15T14:07:08;102291;;;-7.9;77.4
79347;BME280;68815;48.810;44.482;2024-02-15T14:10:10;102285;;;-7.9;77.6
79347;BME280;68815;48.810;44.482;2024-02-15T14:13:12;102285;;;-8;77.7
79347;BME280;68815;48.810;44.482;2024-02-15T14:16:14;102283;;;-8.1;77.8
79347;BME280;68815;48.810;44.482;2024-02-15T14:19:16;102305;;;-8.1;77.9
79347;BME280;68815;48.810;44.482;2024-02-15T14:22:17;102315;;;-8;77.5
79347;BME280;68815;48.810;44.482;2024-02-15T14:25:19;102296;;;-8.1;77.7
79347;BME280;68815;48.810;44.482;2024-02-15T14:28:21;102297;;;-8.1;77.8
79347;BME280;68815;48.810;44.482;2024-02-15T14:31:22;102296;;;-8.2;78.2
79347;BME280;68815;48.810;44.482;2024-02-15T14:34:24;102322;;;-8.2;78.5
79347;BME280;68815;48.810;44.482;2024-02-15T14:37:27;102298;;;-8.3;78.8
79347;BME280;68815;48.810;44.482;2024-02-15T14:40:29;102317;;;-8.3;79.3
79347;BME280;68815;48.810;44.482;2024-02-15T14:43:30;102326;;;-8.3;79.5
79347;BME280;68815;48.810;44.482;2024-02-15T14:46:32;102331;;;-8.3;79.7
79347;BME280;68815;48.810;44.482;2024-02-15T14:49:33;102333;;;-8.3;79.7
79347;BME280;68815;48.810;44.482;2024-02-15T14:52:36;102319;;;-8.3;79.9
79347;BME280;68815;48.810;44.482;2024-02-15T14:55:37;102342;;;-8.4;80.2
79347;BME280;68815;48.810;44.482;2024-02-15T14:58:39;102321;;;-8.5;80.4
79347;BME280;68815;48.810;44.482;2024-02-15T15:01:40;102328;;;-8.5;80.8
79347;BME280;68815;48.810;44.482;2024-02-15T15:04:42;102331;;;-8.5;80.8
79347;BME280;68815;48.810;44.482;2024-02-15T15:07:45;102342;;;-8.4;81.1
79347;BME280;68815;48.810;44.482;2024-02-15T15:10:47;102406.99;;;-8.5;80.8
79347;BME280;68815;48.810;44.482;2024-02-15T15:13:48;102354;;;-8.5;81
79347;BME280;68815;48.810;44.482;2024-02-15T15:16:50;102365;;;-8.5;81.1
79347;BME280;68815;48.810;44.482;2024-02-15T15:19:52;102353;;;-8.5;81.3
79347;BME280;68815;48.810;44.482;2024-02-15T15:22:54;102387;;;-8.5;81.2
79347;BME280;68815;48.810;44.482;2024-02-15T15:25:56;102359;;;-8.5;81.6
79347;BME280;68815;48.810;44.482;2024-02-15T15:28:57;102388;;;-8.5;81.5
79347;BME280;68815;48.810;44.482;2024-02-15T15:31:59;102368;;;-8.6;81.8
79347;BME280;68815;48.810;44.482;2024-02-15T15:35:01;102374;;;-8.7;82.1
79347;BME280;68815;48.810;44.482;2024-02-15T15:38:02;102373;;;-8.6;82.3
79347;BME280;68815;48.810;44.482;2024-02-15T15:41:06;102397;;;-8.7;82.4
79347;BME280;68815;48.810;44.482;2024-02-15T15:44:08;102393;;;-8.6;82.2
79347;BME280;68815;48.810;44.482;2024-02-15T15:47:10;102413;;;-8.7;82.3
79347;BME280;68815;48.810;44.482;2024-02-15T15:50:11;102393;;;-8.8;82.6
79347;BME280;68815;48.810;44.482;2024-02-15T15:53:13;102379;;;-8.8;82.9
79347;BME280;68815;48.810;44.482;2024-02-15T15:56:15;102437;;;-8.8;83
79347;BME280;68815;48.810;44.482;2024-02-15T15:59:17;102438;;;-8.8;83.3
79347;BME280;68815;48.810;44.482;2024-02-15T16:02:19;102419.99;;;-8.8;83.3
79347;BME280;68815;48.810;44.482;2024-02-15T16:05:22;102423;;;-8.9;83.6
79347;BME280;68815;48.810;44.482;2024-02-15T16:08:23;102430.01;;;-9;84
79347;BME280;68815;48.810;44.482;2024-02-15T16:11:25;102442.01;;;-9;84.1
79347;BME280;68815;48.810;44.482;2024-02-15T16:14:28;102427;;;-9;84
79347;BME280;68815;48.810;44.482;2024-02-15T16:17:29;102436;;;-9;83.9
79347;BME280;68815;48.810;44.482;2024-02-15T16:20:31;102485;;;-9;83.9
79347;BME280;68815;48.810;44.482;2024-02-15T16:23:33;102453;;;-9.1;84.2
79347;BME280;68815;48.810;44.482;2024-02-15T16:26:34;102454;;;-9.1;84.2
79347;BME280;68815;48.810;44.482;2024-02-15T16:29:36;102468.99;;;-9.2;84.5
79347;BME280;68815;48.810;44.482;2024-02-15T16:32:38;102452;;;-9.2;84.3
79347;BME280;68815;48.810;44.482;2024-02-15T16:35:40;102472;;;-9.1;84.4
79347;BME280;68815;48.810;44.482;2024-02-15T16:38:41;102476;;;-9.2;84
79347;BME280;68815;48.810;44.482;2024-02-15T16:41:46;102477;;;-9.2;83.9
79347;BME280;68815;48.810;44.482;2024-02-15T16:44:48;102480.01;;;-9.2;83.9
79347;BME280;68815;48.810;44.482;2024-02-15T16:47:50;102487;;;-9.2;83.3